Accueil
METAR-TAF:

METAR-TAF

Aéroports :

Pointe-Noire, Congo

Aéroport international Agostinho-Neto

latitude: 04-49S, longitude: 011-54E, altitude: 17 m

Observation

Le bulletin a été fait il y a 47 minutes, à 04:00 UTC
Vent 7 kt de sud
Température 24°C
Humidité 94%
Pression 1013 hPa
Visibilité: 8000 m
Nuages épars à une hauteur de 800 ft
Nuages fragmentés à une hauteur de 2000 ft

METAR: FCPP 220400Z 18007KT 8000 SCT008 BKN020 24/23 Q1013 NOSIG

Heure: 05:47 (04:47 UTC)

Prévision

Le bulletin a été fait il y a 5 heures et 47 minutes, à 23:00 UTC
Prévision valable du 22 à 00 UTC au 22 à 24 UTC
Vent 6 kt de sud/sud-ouest
Visibilité: 8000 m
Nuages épars à une hauteur de 2000 ft
Probabilité 30%
du 22 à 05 UTC au 22 à 08 UTC
Visibilité: 4000 m
Nuages fragmentés à une hauteur de 1200 ft
Nuages épars à une hauteur de 1500 ft
bruine

TAF: FCPP 212300Z 2200/2224 20006KT 8000 SCT020 PROB30 2205/2208 4000 DZ BKN012 SCT015

Observations et prévisions météorologiques de plus de 4000 aéroports (messages METAR et TAF).

Les stations disponibles sont représentées par des disques jaunes et rouges sur la carte.

Passer la souris dessus pour voir le nom de la station.

Cliquer dessus pour voir les observations et prévisions météorologiques.

Pour changer de carte: cliquez sur les boutons verts avec une croix noire pour zoomer, sur le bouton vert avec un tiret pour effectuer un zoom arrière, ou sur les flèches vertes pour les cartes adjacentes.


METAR-TAF: